createdAt,value
2018-09-19T00:01:49.976Z,21.43
2018-09-19T00:04:53.268Z,21.68
2018-09-19T00:07:56.374Z,21.37
2018-09-19T00:10:59.467Z,20.40
2018-09-19T00:14:02.588Z,20.14
2018-09-19T00:17:05.884Z,20.88
2018-09-19T00:20:09.140Z,21.01
2018-09-19T00:23:12.271Z,20.52
2018-09-19T00:26:15.539Z,20.65
2018-09-19T00:29:18.813Z,20.64
2018-09-19T00:32:21.988Z,20.52
2018-09-19T00:35:25.162Z,20.60
2018-09-19T00:38:28.410Z,20.52
2018-09-19T00:41:31.548Z,20.50
2018-09-19T00:44:34.708Z,20.33
2018-09-19T00:47:37.830Z,20.44
2018-09-19T00:50:41.084Z,20.21
2018-09-19T00:53:44.364Z,20.28
2018-09-19T00:56:47.590Z,20.22
2018-09-19T00:59:50.728Z,20.05
2018-09-19T01:02:53.990Z,19.81
2018-09-19T01:05:57.099Z,20.08
2018-09-19T01:09:00.299Z,20.26
2018-09-19T01:12:03.517Z,20.05
2018-09-19T01:15:06.913Z,19.77
2018-09-19T01:18:10.283Z,19.60
2018-09-19T01:21:13.436Z,19.75
2018-09-19T01:24:16.706Z,19.69
2018-09-19T01:27:19.880Z,20.11
2018-09-19T01:30:22.952Z,19.88
2018-09-19T01:33:26.057Z,20.05
2018-09-19T01:36:29.217Z,20.22
2018-09-19T01:39:32.366Z,20.05
2018-09-19T01:42:35.512Z,19.96
2018-09-19T01:45:38.857Z,19.64
2018-09-19T01:48:41.974Z,19.73
2018-09-19T01:51:45.182Z,19.12
2018-09-19T01:54:48.325Z,19.25
2018-09-19T01:57:51.465Z,19.51
2018-09-19T02:00:54.622Z,19.52
2018-09-19T02:03:57.809Z,19.52
2018-09-19T02:07:00.984Z,19.10
2018-09-19T02:10:04.267Z,19.32
2018-09-19T02:13:07.497Z,18.92
2018-09-19T02:16:10.672Z,19.36
2018-09-19T02:19:13.918Z,19.58
2018-09-19T02:22:17.066Z,19.76
2018-09-19T02:25:20.223Z,19.86
2018-09-19T02:28:23.452Z,19.38
2018-09-19T02:31:26.843Z,19.51
2018-09-19T02:34:30.166Z,19.74
2018-09-19T02:37:33.337Z,19.28
2018-09-19T02:40:36.509Z,19.08
2018-09-19T02:43:39.780Z,19.19
2018-09-19T02:46:43.155Z,19.27
2018-09-19T02:49:46.538Z,19.13
2018-09-19T02:52:55.466Z,19.40
2018-09-19T02:55:58.558Z,19.32
2018-09-19T02:59:01.637Z,19.34
2018-09-19T03:02:04.787Z,18.84
2018-09-19T03:05:08.119Z,18.80
2018-09-19T03:08:11.179Z,18.91
2018-09-19T03:11:14.598Z,18.33
2018-09-19T03:14:17.904Z,18.23
2018-09-19T03:17:21.322Z,18.55
2018-09-19T03:20:24.355Z,18.44
2018-09-19T03:23:27.559Z,18.42
2018-09-19T03:26:30.742Z,18.44
2018-09-19T03:29:33.985Z,18.20
2018-09-19T03:32:37.051Z,18.29
2018-09-19T03:35:40.275Z,17.54
2018-09-19T03:38:43.438Z,17.39
2018-09-19T03:41:46.719Z,17.76
2018-09-19T03:44:49.888Z,17.86
2018-09-19T03:47:53.004Z,17.67
2018-09-19T03:50:56.214Z,17.56
2018-09-19T03:53:59.690Z,17.41
2018-09-19T03:57:03.052Z,17.41
2018-09-19T04:00:06.655Z,17.25
2018-09-19T04:03:09.758Z,17.19
2018-09-19T04:06:12.872Z,17.32
2018-09-19T04:09:16.010Z,17.51
2018-09-19T04:12:19.190Z,17.70
2018-09-19T04:15:22.318Z,17.41
2018-09-19T04:18:25.493Z,17.23
2018-09-19T04:21:28.581Z,17.23
2018-09-19T04:24:31.657Z,17.22
2018-09-19T04:27:34.802Z,16.93
2018-09-19T04:30:37.937Z,16.69
2018-09-19T04:33:41.048Z,16.92
2018-09-19T04:36:44.339Z,17.02
2018-09-19T04:39:47.460Z,17.07
2018-09-19T04:42:50.682Z,17.15
2018-09-19T04:45:53.766Z,17.05
2018-09-19T04:48:56.814Z,16.50
2018-09-19T04:52:00.966Z,16.28
2018-09-19T04:55:05.901Z,16.64
2018-09-19T04:58:08.984Z,16.90
2018-09-19T05:01:12.064Z,17.24
2018-09-19T05:04:15.122Z,17.35
2018-09-19T05:07:18.298Z,17.10
2018-09-19T05:10:23.552Z,17.08
2018-09-19T05:13:26.735Z,16.85
2018-09-19T05:16:29.970Z,16.95
2018-09-19T05:19:33.077Z,17.23
2018-09-19T05:22:36.175Z,17.06
2018-09-19T05:25:39.330Z,17.25
2018-09-19T05:28:42.455Z,17.13
2018-09-19T05:31:45.568Z,17.24
2018-09-19T05:34:49.168Z,16.24
2018-09-19T05:37:52.338Z,16.78
2018-09-19T05:40:55.467Z,17.01
2018-09-19T05:43:58.605Z,16.98
2018-09-19T05:47:01.709Z,17.24
2018-09-19T05:50:04.789Z,17.79
2018-09-19T05:53:08.146Z,17.89
2018-09-19T05:56:11.339Z,18.04
2018-09-19T05:59:14.448Z,18.25
2018-09-19T06:02:17.514Z,19.17
2018-09-19T06:05:20.714Z,19.47
2018-09-19T06:08:23.849Z,19.76
2018-09-19T06:11:26.953Z,19.67
2018-09-19T06:14:30.173Z,19.85
2018-09-19T06:17:33.461Z,20.20
2018-09-19T06:20:36.655Z,20.48
2018-09-19T06:23:39.750Z,21.70
2018-09-19T06:26:42.946Z,21.16
2018-09-19T06:29:46.317Z,21.32
2018-09-19T06:36:04.218Z,20.62
2018-09-19T06:39:10.132Z,21.01
2018-09-19T06:42:13.244Z,21.20
2018-09-19T06:45:16.378Z,21.21
2018-09-19T06:48:19.552Z,19.99
2018-09-19T06:51:22.774Z,19.34
2018-09-19T06:54:25.905Z,20.63
2018-09-19T06:57:29.036Z,20.99
2018-09-19T07:00:32.273Z,21.61
2018-09-19T07:03:35.572Z,20.97
2018-09-19T07:06:38.850Z,21.21
2018-09-19T07:09:42.026Z,21.01
2018-09-19T07:12:45.167Z,20.60
2018-09-19T07:15:48.296Z,20.40
2018-09-19T07:18:51.427Z,19.67
2018-09-19T07:21:54.453Z,20.27
2018-09-19T07:24:57.628Z,19.83
2018-09-19T07:28:00.746Z,20.32
2018-09-19T07:31:04.028Z,19.74
2018-09-19T07:34:07.157Z,21.17
2018-09-19T07:37:10.409Z,21.14
2018-09-19T07:40:13.642Z,21.70
2018-09-19T07:43:16.894Z,22.54
2018-09-19T07:46:20.103Z,22.66
2018-09-19T07:49:23.196Z,24.10
2018-09-19T07:52:26.302Z,22.94
2018-09-19T07:55:29.779Z,23.42
2018-09-19T07:58:32.877Z,23.88
2018-09-19T08:01:36.184Z,24.23
2018-09-19T08:04:39.371Z,24.09
2018-09-19T08:07:42.438Z,23.52
2018-09-19T08:10:45.701Z,24.08
2018-09-19T08:13:48.981Z,25.06
2018-09-19T08:16:52.317Z,26.05
2018-09-19T08:19:55.577Z,25.64
2018-09-19T08:22:58.753Z,25.53
2018-09-19T08:26:02.047Z,24.77
2018-09-19T08:29:05.333Z,25.07
2018-09-19T08:32:08.469Z,24.75
2018-09-19T08:35:11.614Z,24.76
2018-09-19T08:38:14.747Z,24.23
2018-09-19T08:41:18.197Z,24.08
2018-09-19T08:44:21.314Z,24.39
2018-09-19T08:47:24.537Z,24.68
2018-09-19T08:50:27.783Z,25.07
2018-09-19T08:53:30.927Z,25.10
2018-09-19T08:56:34.113Z,25.27
2018-09-19T08:59:38.380Z,25.41
2018-09-19T09:02:41.536Z,26.10
2018-09-19T09:05:44.771Z,25.83
2018-09-19T09:08:47.893Z,25.80
2018-09-19T09:11:51.037Z,25.31
2018-09-19T09:14:54.214Z,25.86
2018-09-19T09:17:57.358Z,25.70
2018-09-19T09:21:00.554Z,25.74
2018-09-19T09:24:03.900Z,25.78
2018-09-19T09:27:07.062Z,26.81
2018-09-19T09:30:10.411Z,26.31
2018-09-19T09:33:13.538Z,27.70
2018-09-19T09:36:16.720Z,26.72
2018-09-19T09:39:20.014Z,27.25
2018-09-19T09:42:23.062Z,25.93
2018-09-19T09:45:26.278Z,25.18
2018-09-19T09:48:29.430Z,25.11
2018-09-19T09:51:32.779Z,25.87
2018-09-19T09:54:36.084Z,26.07
2018-09-19T09:57:39.177Z,26.37
2018-09-19T10:00:42.814Z,25.91
2018-09-19T10:03:46.079Z,26.39
2018-09-19T10:06:49.301Z,26.63
2018-09-19T10:09:52.372Z,26.69
2018-09-19T10:12:55.514Z,26.64
2018-09-19T10:15:58.662Z,26.71
2018-09-19T10:19:01.865Z,27.22
2018-09-19T10:22:05.037Z,27.02
2018-09-19T10:25:08.279Z,27.14
2018-09-19T10:28:11.414Z,27.64
2018-09-19T10:31:14.550Z,27.56
2018-09-19T10:34:17.746Z,27.72
2018-09-19T10:37:20.972Z,27.78
2018-09-19T10:40:24.143Z,27.41
2018-09-19T10:43:27.341Z,27.74
2018-09-19T10:46:30.544Z,27.17
2018-09-19T10:49:33.725Z,27.08
2018-09-19T10:52:36.960Z,27.25
2018-09-19T10:55:40.024Z,27.77
2018-09-19T10:58:43.176Z,27.24
2018-09-19T11:01:46.271Z,27.93
2018-09-19T11:04:49.436Z,26.84
2018-09-19T11:07:52.713Z,26.80
2018-09-19T11:10:55.973Z,26.76
2018-09-19T11:13:59.109Z,26.96
2018-09-19T11:17:02.147Z,27.34
2018-09-19T11:20:05.381Z,27.16
2018-09-19T11:23:08.515Z,26.86
2018-09-19T11:26:11.675Z,26.98
2018-09-19T11:29:14.722Z,27.13
2018-09-19T11:32:17.824Z,26.97
2018-09-19T11:35:20.997Z,27.16
2018-09-19T11:38:24.086Z,27.29
2018-09-19T11:41:27.251Z,27.24
2018-09-19T11:44:30.481Z,27.40
2018-09-19T11:47:33.513Z,27.81
2018-09-19T11:50:36.606Z,28.52
2018-09-19T11:53:39.839Z,28.01
2018-09-19T11:56:42.998Z,27.98
2018-09-19T11:59:46.237Z,28.44
2018-09-19T12:02:49.490Z,29.21
2018-09-19T12:05:52.668Z,28.98
2018-09-19T12:08:55.855Z,29.65
2018-09-19T12:11:58.899Z,28.89
2018-09-19T12:15:02.209Z,28.86
2018-09-19T12:18:05.331Z,28.54
2018-09-19T12:21:08.508Z,28.11
2018-09-19T12:24:11.740Z,28.60
2018-09-19T12:27:14.841Z,28.24
2018-09-19T12:30:18.206Z,29.05
2018-09-19T12:33:21.367Z,29.12
2018-09-19T12:36:25.674Z,28.47
2018-09-19T12:39:28.874Z,28.16
2018-09-19T12:42:32.045Z,28.71
2018-09-19T12:45:35.205Z,29.40
2018-09-19T12:48:38.363Z,29.19
2018-09-19T12:51:41.545Z,29.39
2018-09-19T12:54:45.044Z,29.74
2018-09-19T12:57:48.170Z,29.23
2018-09-19T13:00:51.732Z,28.67
2018-09-19T13:03:54.843Z,28.43
2018-09-19T13:06:58.002Z,28.32
2018-09-19T13:10:01.246Z,28.89
2018-09-19T13:13:04.407Z,28.55
2018-09-19T13:16:07.702Z,28.97
2018-09-19T13:19:11.031Z,29.72
2018-09-19T13:22:14.201Z,29.31
2018-09-19T13:25:17.306Z,28.67
2018-09-19T13:28:20.318Z,28.62
2018-09-19T13:31:23.433Z,28.32
2018-09-19T13:34:26.618Z,29.49
2018-09-19T13:37:29.644Z,29.55
2018-09-19T13:40:32.775Z,29.55
2018-09-19T13:43:36.047Z,29.97
2018-09-19T13:46:39.351Z,29.66
2018-09-19T13:50:07.759Z,30.03
2018-09-19T13:53:11.113Z,30.09
2018-09-19T13:56:14.247Z,30.10
2018-09-19T13:59:18.396Z,30.24
2018-09-19T14:02:21.538Z,30.27
2018-09-19T14:05:24.601Z,30.15
2018-09-19T14:08:27.728Z,30.09
2018-09-19T14:11:30.951Z,29.92
2018-09-19T14:14:34.064Z,29.78
2018-09-19T14:17:37.480Z,30.01
2018-09-19T14:20:40.644Z,29.27
2018-09-19T14:23:43.798Z,28.72
2018-09-19T14:26:46.954Z,28.95
2018-09-19T14:29:50.155Z,29.89
2018-09-19T14:32:53.322Z,29.07
2018-09-19T14:35:56.456Z,28.91
2018-09-19T14:38:59.555Z,28.90
2018-09-19T14:42:02.824Z,29.04
2018-09-19T14:45:06.262Z,29.19
2018-09-19T14:48:09.482Z,29.71
2018-09-19T14:51:12.828Z,29.58
2018-09-19T14:54:15.984Z,29.39
2018-09-19T14:57:19.068Z,29.68
2018-09-19T15:00:22.267Z,29.99
2018-09-19T15:03:25.490Z,30.07
2018-09-19T15:06:28.726Z,29.61
2018-09-19T15:09:32.248Z,29.27
2018-09-19T15:12:35.359Z,29.33
2018-09-19T15:15:38.713Z,29.74
2018-09-19T15:18:41.795Z,29.55
2018-09-19T15:21:44.873Z,29.09
2018-09-19T15:24:48.051Z,29.11
2018-09-19T15:27:51.249Z,29.21
2018-09-19T15:30:54.499Z,29.39
2018-09-19T15:33:57.653Z,29.21
2018-09-19T15:37:00.818Z,29.20
2018-09-19T15:40:04.459Z,29.56
2018-09-19T15:43:07.611Z,29.22
2018-09-19T15:46:10.924Z,29.21
2018-09-19T15:49:14.251Z,29.21
2018-09-19T15:52:17.467Z,29.02
2018-09-19T15:55:20.654Z,28.99
2018-09-19T15:58:23.770Z,28.89
2018-09-19T16:01:27.023Z,28.81
2018-09-19T16:04:30.649Z,28.97
2018-09-19T16:07:34.706Z,28.99
2018-09-19T16:10:37.938Z,28.75
2018-09-19T16:13:41.176Z,28.44
2018-09-19T16:17:06.469Z,28.16
2018-09-19T16:20:09.965Z,28.17
2018-09-19T16:23:13.129Z,28.24
2018-09-19T16:26:16.305Z,28.36
2018-09-19T16:29:19.414Z,28.57
2018-09-19T16:32:22.582Z,28.43
2018-09-19T16:35:25.613Z,28.43
2018-09-19T16:38:28.692Z,28.36
2018-09-19T16:41:31.960Z,28.29
2018-09-19T16:44:35.291Z,28.08
2018-09-19T16:47:38.410Z,27.88
2018-09-19T16:50:41.533Z,27.83
2018-09-19T16:53:44.552Z,27.80
2018-09-19T16:56:47.850Z,27.83
2018-09-19T16:59:51.149Z,27.82
2018-09-19T17:02:54.464Z,27.68
2018-09-19T17:05:57.613Z,27.60
2018-09-19T17:09:00.954Z,27.46
2018-09-19T17:12:04.073Z,27.33
2018-09-19T17:15:07.239Z,27.15
2018-09-19T17:18:10.277Z,27.04
2018-09-19T17:21:13.390Z,26.86
2018-09-19T17:24:16.413Z,26.85
2018-09-19T17:27:19.701Z,26.78
2018-09-19T17:30:22.702Z,26.81
2018-09-19T17:33:25.798Z,26.49
2018-09-19T17:36:28.939Z,26.28
2018-09-19T17:39:32.053Z,26.03
2018-09-19T17:42:35.062Z,26.13
2018-09-19T17:45:38.062Z,25.88
2018-09-19T17:48:42.039Z,25.82
2018-09-19T17:51:45.320Z,25.31
2018-09-19T17:54:48.418Z,25.05
2018-09-19T17:57:51.679Z,25.23
2018-09-19T18:00:54.784Z,25.32
2018-09-19T18:03:57.953Z,25.51
2018-09-19T18:07:01.061Z,25.43
2018-09-19T18:10:04.387Z,25.36
2018-09-19T18:13:07.657Z,25.42
2018-09-19T18:16:11.293Z,25.43
2018-09-19T18:19:14.783Z,25.52
2018-09-19T18:22:18.229Z,25.50
2018-09-19T18:25:21.462Z,25.63
2018-09-19T18:28:25.571Z,25.33
2018-09-19T18:31:28.705Z,25.38
2018-09-19T18:34:31.841Z,25.54
2018-09-19T18:37:35.040Z,25.40
2018-09-19T18:40:38.294Z,25.26
2018-09-19T18:43:41.541Z,25.14
2018-09-19T18:46:44.770Z,25.43
2018-09-19T18:49:47.975Z,25.05
2018-09-19T18:52:51.198Z,25.13
2018-09-19T18:55:54.338Z,24.69
2018-09-19T18:58:57.707Z,24.65
2018-09-19T19:02:01.017Z,24.38
2018-09-19T19:05:04.407Z,24.36
2018-09-19T19:08:07.701Z,24.24
2018-09-19T19:11:11.018Z,24.07
2018-09-19T19:14:14.186Z,23.93
2018-09-19T19:17:17.519Z,23.96
2018-09-19T19:20:20.854Z,23.95
2018-09-19T19:23:24.750Z,23.94
2018-09-19T19:26:27.946Z,23.97
2018-09-19T19:29:31.177Z,23.97
2018-09-19T19:32:34.414Z,23.94
2018-09-19T19:35:37.605Z,23.83
2018-09-19T19:38:40.993Z,24.20
2018-09-19T19:41:44.289Z,23.86
2018-09-19T19:44:47.740Z,23.89
2018-09-19T19:47:50.829Z,23.58
2018-09-19T19:50:53.950Z,23.51
2018-09-19T19:53:57.123Z,23.07
2018-09-19T19:57:00.894Z,22.95
2018-09-19T20:00:04.254Z,22.88
2018-09-19T20:03:07.672Z,22.70
2018-09-19T20:06:10.789Z,22.42
2018-09-19T20:09:13.971Z,21.88
2018-09-19T20:12:17.244Z,21.78
2018-09-19T20:15:20.495Z,21.60
2018-09-19T20:18:23.671Z,21.88
2018-09-19T20:21:26.896Z,21.89
2018-09-19T20:24:30.134Z,22.42
2018-09-19T20:27:33.711Z,22.46
2018-09-19T20:30:36.948Z,22.58
2018-09-19T20:33:40.243Z,22.38
2018-09-19T20:36:43.398Z,22.31
2018-09-19T20:39:46.510Z,22.75
2018-09-19T20:42:49.590Z,22.81
2018-09-19T20:45:52.769Z,22.21
2018-09-19T20:48:55.920Z,22.27
2018-09-19T20:51:59.190Z,22.56
2018-09-19T20:55:02.328Z,22.09
2018-09-19T20:58:05.629Z,22.21
2018-09-19T21:01:08.860Z,22.20
2018-09-19T21:04:12.043Z,22.37
2018-09-19T21:07:15.201Z,22.32
2018-09-19T21:10:18.315Z,22.29
2018-09-19T21:13:21.489Z,22.58
2018-09-19T21:16:24.695Z,22.40
2018-09-19T21:19:27.901Z,22.23
2018-09-19T21:22:31.211Z,22.40
2018-09-19T21:25:34.277Z,22.07
2018-09-19T21:28:37.498Z,21.09
2018-09-19T21:31:41.080Z,21.28
2018-09-19T21:34:44.214Z,20.80
2018-09-19T21:37:47.290Z,20.80
2018-09-19T21:40:50.407Z,20.41
2018-09-19T21:43:53.366Z,20.62
2018-09-19T21:46:56.392Z,21.09
2018-09-19T21:49:59.497Z,21.46
2018-09-19T21:53:02.602Z,21.41
2018-09-19T21:56:05.803Z,21.66
2018-09-19T21:59:08.931Z,21.57
2018-09-19T22:02:12.101Z,21.53
2018-09-19T22:05:15.226Z,21.55
2018-09-19T22:08:18.338Z,21.69
2018-09-19T22:11:21.367Z,21.78
2018-09-19T22:14:24.461Z,21.76
2018-09-19T22:17:27.589Z,21.81
2018-09-19T22:20:30.713Z,21.82
2018-09-19T22:23:34.110Z,21.49
2018-09-19T22:26:37.319Z,21.60
2018-09-19T22:29:40.540Z,21.67
2018-09-19T22:32:43.906Z,21.24
2018-09-19T22:35:46.959Z,21.31
2018-09-19T22:38:49.986Z,21.34
2018-09-19T22:41:53.061Z,20.72
2018-09-19T22:44:56.134Z,20.89
2018-09-19T22:47:59.295Z,21.19
2018-09-19T22:51:02.430Z,21.47
2018-09-19T22:54:05.604Z,21.27
2018-09-19T22:57:08.768Z,21.45
2018-09-19T23:00:11.897Z,21.27
2018-09-19T23:03:15.097Z,21.16
2018-09-19T23:06:18.138Z,21.19
2018-09-19T23:09:21.245Z,20.49
2018-09-19T23:12:24.293Z,20.23
2018-09-19T23:15:27.490Z,20.45
2018-09-19T23:18:30.683Z,20.71
2018-09-19T23:21:33.773Z,20.33
2018-09-19T23:24:36.816Z,20.57
2018-09-19T23:27:40.283Z,20.55
2018-09-19T23:30:43.438Z,20.54
2018-09-19T23:33:46.608Z,20.54
2018-09-19T23:36:49.898Z,20.47
2018-09-19T23:39:53.036Z,20.50
2018-09-19T23:42:56.355Z,20.11
2018-09-19T23:46:00.481Z,19.80
2018-09-19T23:49:03.558Z,19.78
2018-09-19T23:52:06.895Z,19.96
2018-09-19T23:55:10.019Z,19.71
2018-09-19T23:58:13.239Z,19.94
